TimeMDT,TemperatureF,Dew PointF,Humidity,Sea Level PressureIn,VisibilityMPH,Wind Direction,Wind SpeedMPH,Gust SpeedMPH,PrecipitationIn,Events,Conditions,WindDirDegrees,DateUTC
5:40 AM,69.8,62.6,78,29.92,10.0,South,3.5,-,N/A,,Clear,190,2013-10-12 11:40:00
5:50 AM,74,67,74,29.86,2,SW,2.2,,,,Partly Cloudy,230,2013-10-12 11:50:00
6:41 AM,69.8,62.6,78,29.87,10.0,South,4.6,-,N/A,,Mostly Cloudy,180,2013-10-12 12:41:00
7:42 AM,69.8,60.8,73,29.89,10.0,SSW,3.5,-,N/A,,Mostly Cloudy,200,2013-10-12 13:42:00
8:41 AM,75.2,62.6,65,29.95,10.0,SSW,3.5,-,N/A,,Mostly Cloudy,200,2013-10-12 14:41:00
9:40 AM,78.8,68.0,69,29.91,10.0,NNW,4.6,-,N/A,,Mostly Cloudy,340,2013-10-12 15:40:00
10:43 AM,82.4,69.8,66,29.90,10.0,NNW,8.1,-,N/A,,Mostly Cloudy,330,2013-10-12 16:43:00
11:43 AM,84.2,68.0,58,29.94,10.0,NNW,12.7,-,N/A,,Mostly Cloudy,330,2013-10-12 17:43:00
12:42 PM,84.2,68.0,58,29.88,10.0,North,10.4,-,N/A,,Mostly Cloudy,350,2013-10-12 18:42:00
1:40 PM,86.0,69.8,58,29.87,10.0,NNW,13.8,-,N/A,,Mostly Cloudy,340,2013-10-12 19:40:00
2:52 PM,84.2,66.2,55,29.96,10.0,NNW,13.8,-,N/A,,Mostly Cloudy,340,2013-10-12 20:52:00
3:51 PM,82.4,68.0,62,29.85,10.0,North,13.8,-,N/A,,Mostly Cloudy,350,2013-10-12 21:51:00
4:51 PM,82.4,68.0,62,29.85,10.0,North,11.5,-,N/A,,Mostly Cloudy,350,2013-10-12 22:51:00
5:44 PM,82.4,68.0,62,29.98,10.0,NW,11.5,-,N/A,,Mostly Cloudy,320,2013-10-12 23:44:00
5:45 PM,84,71,57,29.83,19,NE,4.5,,,,Mostly Cloudy,50,2013-10-12 23:45:00
6:49 PM,82.4,68.0,62,29.87,10.0,North,6.9,-,N/A,,Mostly Cloudy,350,2013-10-13 00:49:00
7:40 PM,82.4,69.8,66,29.87,10.0,North,5.8,-,N/A,,Mostly Cloudy,350,2013-10-13 01:40:00
8:45 PM,83,73,66,29.84,2,NW,4.5,,,,Mostly Cloudy,320,2013-10-13 02:45:00
8:45 PM,82.4,69.8,66,30.00,10.0,NNW,5.8,-,N/A,,Mostly Cloudy,330,2013-10-13 02:45:00
9:45 PM,80.6,69.8,70,29.88,10.0,Calm,Calm,-,N/A,,Mostly Cloudy,0,2013-10-13 03:45:00
10:40 PM,80.6,69.8,70,29.89,10.0,Calm,Calm,-,N/A,,Mostly Cloudy,0,2013-10-13 04:40:00